createdAt,value
2018-01-10T00:00:29.904Z,72.52
2018-01-10T00:01:29.897Z,73.08
2018-01-10T00:02:29.891Z,72.52
2018-01-10T00:03:29.884Z,73.18
2018-01-10T00:04:29.877Z,72.80
2018-01-10T00:05:29.870Z,73.27
2018-01-10T00:06:29.866Z,73.75
2018-01-10T00:07:29.858Z,73.18
2018-01-10T00:08:29.852Z,73.18
2018-01-10T00:09:29.847Z,72.52
2018-01-10T00:10:29.845Z,72.23
2018-01-10T00:11:29.833Z,72.61
2018-01-10T00:12:29.825Z,72.33
2018-01-10T00:13:29.819Z,72.42
2018-01-10T00:14:29.812Z,72.52
2018-01-10T00:15:29.805Z,73.46
2018-01-10T00:16:29.804Z,72.99
2018-01-10T00:17:29.793Z,74.32
2018-01-10T00:18:29.787Z,74.13
2018-01-10T00:19:29.780Z,73.84
2018-01-10T00:20:29.773Z,73.94
2018-01-10T00:21:29.767Z,74.32
2018-01-10T00:22:29.761Z,74.41
2018-01-10T00:23:29.755Z,75.45
2018-01-10T00:24:29.754Z,74.60
2018-01-10T00:25:29.742Z,74.51
2018-01-10T00:26:29.736Z,74.64
2018-01-10T00:27:29.729Z,75.21
2018-01-10T00:28:29.723Z,75.96
2018-01-10T00:29:29.715Z,76.03
2018-01-10T00:30:29.711Z,76.31
2018-01-10T00:31:29.704Z,76.34
2018-01-10T00:32:29.697Z,77.11
2018-01-10T00:33:29.699Z,77.39
2018-01-10T00:34:29.685Z,78.05
2018-01-10T00:35:29.679Z,77.39
2018-01-10T00:36:29.672Z,78.15
2018-01-10T00:37:29.670Z,78.34
2018-01-10T00:38:29.661Z,78.15
2018-01-10T00:39:29.655Z,77.29
2018-01-10T00:40:29.648Z,77.67
2018-01-10T00:41:29.644Z,78.05
2018-01-10T00:42:29.636Z,78.34
2018-01-10T00:43:29.630Z,77.77
2018-01-10T00:44:29.623Z,77.96
2018-01-10T00:45:29.618Z,77.96
2018-01-10T00:46:29.612Z,77.86
2018-01-10T00:47:29.606Z,78.34
2018-01-10T00:48:29.598Z,78.05
2018-01-10T00:49:29.593Z,77.77
2018-01-10T00:50:29.588Z,77.96
2018-01-10T00:51:29.585Z,77.77
2018-01-10T00:52:29.575Z,77.96
2018-01-10T00:53:29.569Z,78.05
2018-01-10T00:54:29.562Z,78.24
2018-01-10T00:55:29.557Z,78.34
2018-01-10T00:56:29.551Z,78.24
2018-01-10T00:57:29.543Z,78.24
2018-01-10T00:58:29.539Z,77.96
2018-01-10T00:59:29.533Z,78.34
2018-01-10T01:00:29.526Z,78.34
2018-01-10T01:01:29.520Z,78.34
2018-01-10T01:02:29.514Z,77.86
2018-01-10T01:03:29.507Z,78.05
2018-01-10T01:04:29.502Z,78.34
2018-01-10T01:05:29.497Z,78.05
2018-01-10T01:06:29.491Z,78.62
2018-01-10T01:07:29.485Z,78.24
2018-01-10T01:08:29.478Z,78.24
2018-01-10T01:09:29.474Z,78.15
2018-01-10T01:10:29.467Z,78.24
2018-01-10T01:11:29.464Z,78.24
2018-01-10T01:12:29.455Z,78.24
2018-01-10T01:13:29.449Z,77.86
2018-01-10T01:14:29.449Z,78.05
2018-01-10T01:15:29.438Z,77.86
2018-01-10T01:16:29.432Z,77.58
2018-01-10T01:17:29.425Z,77.67
2018-01-10T01:18:29.424Z,77.67
2018-01-10T01:19:29.414Z,78.05
2018-01-10T01:20:29.407Z,77.39
2018-01-10T01:21:29.401Z,77.20
2018-01-10T01:22:29.397Z,77.11
2018-01-10T01:23:29.390Z,77.39
2018-01-10T01:24:29.385Z,77.39
2018-01-10T01:25:29.378Z,76.92
2018-01-10T01:26:29.373Z,76.92
2018-01-10T01:27:29.370Z,76.92
2018-01-10T01:28:29.360Z,76.63
2018-01-10T01:29:29.356Z,75.96
2018-01-10T01:30:29.350Z,75.40
2018-01-10T01:31:29.345Z,75.31
2018-01-10T01:32:29.338Z,74.83
2018-01-10T01:33:29.335Z,75.31
2018-01-10T01:34:29.328Z,74.92
2018-01-10T01:35:29.322Z,75.31
2018-01-10T01:36:29.315Z,75.40
2018-01-10T01:37:29.310Z,74.64
2018-01-10T01:38:29.304Z,75.02
2018-01-10T01:39:29.297Z,74.73
2018-01-10T01:40:29.291Z,74.64
2018-01-10T01:41:29.286Z,74.92
2018-01-10T01:42:29.281Z,74.83
2018-01-10T01:43:29.276Z,74.83
2018-01-10T01:44:29.269Z,74.73
2018-01-10T01:45:29.264Z,74.64
2018-01-10T01:46:29.259Z,74.73
2018-01-10T01:47:29.253Z,74.83
2018-01-10T01:48:29.246Z,74.73
2018-01-10T01:49:29.241Z,75.31
2018-01-10T01:50:29.235Z,75.11
2018-01-10T01:51:29.230Z,75.59
2018-01-10T01:52:29.223Z,75.31
2018-01-10T01:53:29.218Z,75.87
2018-01-10T01:54:29.212Z,75.11
2018-01-10T01:55:29.206Z,75.21
2018-01-10T01:56:29.198Z,75.59
2018-01-10T01:57:29.194Z,75.11
2018-01-10T01:58:29.189Z,75.40
2018-01-10T01:59:29.184Z,74.83
2018-01-10T02:00:29.177Z,74.64
2018-01-10T02:01:29.172Z,75.49
2018-01-10T02:02:29.166Z,75.31
2018-01-10T02:03:29.161Z,75.31
2018-01-10T02:04:29.155Z,75.02
2018-01-10T02:05:29.151Z,75.68
2018-01-10T02:06:29.145Z,75.31
2018-01-10T02:07:29.139Z,75.78
2018-01-10T02:08:29.133Z,75.68
2018-01-10T02:09:29.127Z,74.92
2018-01-10T02:10:29.121Z,74.92
2018-01-10T02:11:29.116Z,74.92
2018-01-10T02:12:29.109Z,74.64
2018-01-10T02:13:29.105Z,75.02
2018-01-10T02:14:29.099Z,74.64
2018-01-10T02:15:29.093Z,74.83
2018-01-10T02:16:29.087Z,75.02
2018-01-10T02:17:29.082Z,74.83
2018-01-10T02:18:29.084Z,74.16
2018-01-10T02:19:29.073Z,73.69
2018-01-10T02:20:29.066Z,73.31
2018-01-10T02:21:29.060Z,73.41
2018-01-10T02:22:29.055Z,73.12
2018-01-10T02:23:29.049Z,73.12
2018-01-10T02:24:29.042Z,73.50
2018-01-10T02:25:29.038Z,73.69
2018-01-10T02:26:29.031Z,73.75
2018-01-10T02:27:29.027Z,74.03
2018-01-10T02:28:29.019Z,74.22
2018-01-10T02:29:29.014Z,74.69
2018-01-10T02:30:29.009Z,74.41
2018-01-10T02:31:29.004Z,75.07
2018-01-10T02:32:29.000Z,75.26
2018-01-10T02:33:28.991Z,75.26
2018-01-10T02:34:28.987Z,75.07
2018-01-10T02:35:28.981Z,74.41
2018-01-10T02:36:28.975Z,73.18
2018-01-10T02:37:28.969Z,73.56
2018-01-10T02:38:28.963Z,73.18
2018-01-10T02:39:28.959Z,73.56
2018-01-10T02:40:28.952Z,73.37
2018-01-10T02:41:28.945Z,72.89
2018-01-10T02:42:28.941Z,72.42
2018-01-10T02:43:28.939Z,72.14
2018-01-10T02:44:28.929Z,72.33
2018-01-10T02:45:28.922Z,72.04
2018-01-10T02:46:28.916Z,71.66
2018-01-10T02:47:28.912Z,71.57
2018-01-10T02:48:28.905Z,71.76
2018-01-10T02:49:28.899Z,71.28
2018-01-10T02:50:28.893Z,71.95
2018-01-10T02:51:28.891Z,71.19
2018-01-10T02:52:28.881Z,71.47
2018-01-10T02:53:28.875Z,71.47
2018-01-10T02:54:28.870Z,71.47
2018-01-10T02:55:28.863Z,71.47
2018-01-10T02:56:28.858Z,71.66
2018-01-10T02:57:28.852Z,71.47
2018-01-10T02:58:28.845Z,71.38
2018-01-10T02:59:28.840Z,71.28
2018-01-10T03:00:28.833Z,71.09
2018-01-10T03:01:28.827Z,71.57
2018-01-10T03:02:28.822Z,71.38
2018-01-10T03:03:28.817Z,71.76
2018-01-10T03:04:28.811Z,72.14
2018-01-10T03:05:28.804Z,72.61
2018-01-10T03:06:28.798Z,72.33
2018-01-10T03:07:28.793Z,72.33
2018-01-10T03:08:28.785Z,72.33
2018-01-10T03:09:28.781Z,72.89
2018-01-10T03:10:28.776Z,72.61
2018-01-10T03:11:28.769Z,72.52
2018-01-10T03:12:28.764Z,73.08
2018-01-10T03:13:28.757Z,72.52
2018-01-10T03:14:28.751Z,72.52
2018-01-10T03:15:28.747Z,72.80
2018-01-10T03:16:28.739Z,72.89
2018-01-10T03:17:28.734Z,72.71
2018-01-10T03:18:28.728Z,72.89
2018-01-10T03:19:28.724Z,72.99
2018-01-10T03:20:28.720Z,72.99
2018-01-10T03:21:28.710Z,72.80
2018-01-10T03:22:28.704Z,72.71
2018-01-10T03:23:28.700Z,72.99
2018-01-10T03:24:28.694Z,72.99
2018-01-10T03:25:28.687Z,72.80
2018-01-10T03:26:28.682Z,72.52
2018-01-10T03:27:28.677Z,72.80
2018-01-10T03:28:28.670Z,72.80
2018-01-10T03:29:28.666Z,72.80
2018-01-10T03:30:28.661Z,72.33
2018-01-10T03:31:28.656Z,72.52
2018-01-10T03:32:28.647Z,72.33
2018-01-10T03:33:28.642Z,72.52
2018-01-10T03:34:28.636Z,72.61
2018-01-10T03:35:28.631Z,72.99
2018-01-10T03:36:28.624Z,72.80
2018-01-10T03:37:28.619Z,73.46
2018-01-10T03:38:28.613Z,73.37
2018-01-10T03:39:28.607Z,73.46
2018-01-10T03:40:28.601Z,72.61
2018-01-10T03:41:28.596Z,72.33
2018-01-10T03:42:28.589Z,72.61
2018-01-10T03:43:28.584Z,72.52
2018-01-10T03:44:28.578Z,72.52
2018-01-10T03:45:28.572Z,72.61
2018-01-10T03:46:28.568Z,72.42
2018-01-10T03:47:28.561Z,72.14
2018-01-10T03:48:28.556Z,72.23
2018-01-10T03:49:28.551Z,72.04
2018-01-10T03:50:28.545Z,71.66
2018-01-10T03:51:28.539Z,71.13
2018-01-10T03:52:28.533Z,71.22
2018-01-10T03:53:28.528Z,71.41
2018-01-10T03:54:28.521Z,70.65
2018-01-10T03:55:28.516Z,70.84
2018-01-10T03:56:28.510Z,71.13
2018-01-10T03:57:28.505Z,71.22
2018-01-10T03:58:28.499Z,70.84
2018-01-10T03:59:28.493Z,71.03
2018-01-10T04:00:28.486Z,70.65
2018-01-10T04:01:28.482Z,70.28
2018-01-10T04:02:28.474Z,70.56
2018-01-10T04:03:28.470Z,70.47
2018-01-10T04:04:28.465Z,71.13
2018-01-10T04:05:28.459Z,70.75
2018-01-10T04:06:28.453Z,71.60
2018-01-10T04:07:28.448Z,71.32
2018-01-10T04:08:28.442Z,71.70
2018-01-10T04:09:28.437Z,71.98
2018-01-10T04:10:28.431Z,71.89
2018-01-10T04:11:28.425Z,71.70
2018-01-10T04:12:28.420Z,71.51
2018-01-10T04:13:28.414Z,71.70
2018-01-10T04:14:28.409Z,70.75
2018-01-10T04:15:28.403Z,70.37
2018-01-10T04:16:28.396Z,70.37
2018-01-10T04:17:28.392Z,70.47
2018-01-10T04:18:28.384Z,70.18
2018-01-10T04:19:28.380Z,69.52
2018-01-10T04:20:28.374Z,69.71
2018-01-10T04:21:28.419Z,69.71
2018-01-10T04:22:28.363Z,69.71
2018-01-10T04:23:28.359Z,69.71
2018-01-10T04:24:28.353Z,69.80
2018-01-10T04:25:28.347Z,69.71
2018-01-10T04:26:28.340Z,69.80
2018-01-10T04:27:28.335Z,69.52
2018-01-10T04:28:28.330Z,69.33
2018-01-10T04:29:28.325Z,69.52
2018-01-10T04:30:28.318Z,69.33
2018-01-10T04:31:28.313Z,69.52
2018-01-10T04:32:28.306Z,69.23
2018-01-10T04:33:28.301Z,68.76
2018-01-10T04:34:28.297Z,68.95
2018-01-10T04:35:28.290Z,68.66
2018-01-10T04:36:28.285Z,68.66
2018-01-10T04:37:28.279Z,68.66
2018-01-10T04:38:28.275Z,68.76
2018-01-10T04:39:28.270Z,69.04
2018-01-10T04:40:28.263Z,68.57
2018-01-10T04:41:28.256Z,68.66
2018-01-10T04:42:28.250Z,68.76
2018-01-10T04:43:28.246Z,68.76
2018-01-10T04:44:28.241Z,68.66
2018-01-10T04:45:28.239Z,68.57
2018-01-10T04:46:28.229Z,68.76
2018-01-10T04:47:28.223Z,68.76
2018-01-10T04:48:28.217Z,69.42
2018-01-10T04:49:28.213Z,69.71
2018-01-10T04:50:28.206Z,69.42
2018-01-10T04:51:28.202Z,69.61
2018-01-10T04:52:28.195Z,69.23
2018-01-10T04:53:28.191Z,69.04
2018-01-10T04:54:28.185Z,69.71
2018-01-10T04:55:28.182Z,69.42
2018-01-10T04:56:28.176Z,69.52
2018-01-10T04:57:28.168Z,69.42
2018-01-10T04:58:28.163Z,69.42
2018-01-10T04:59:28.157Z,69.52
2018-01-10T05:00:28.151Z,69.71
2018-01-10T05:01:28.146Z,69.13
2018-01-10T05:02:28.140Z,69.23
2018-01-10T05:03:28.136Z,69.23
2018-01-10T05:04:28.129Z,69.23
2018-01-10T05:05:28.124Z,69.42
2018-01-10T05:06:28.120Z,69.13
2018-01-10T05:07:28.114Z,69.61
2018-01-10T05:08:28.109Z,69.33
2018-01-10T05:09:28.108Z,69.61
2018-01-10T05:10:28.098Z,69.23
2018-01-10T05:11:28.131Z,69.71
2018-01-10T05:12:28.086Z,69.71
2018-01-10T05:13:28.080Z,69.61
2018-01-10T05:14:28.101Z,70.28
2018-01-10T05:15:28.070Z,69.90
2018-01-10T05:16:28.064Z,69.80
2018-01-10T05:17:28.060Z,69.99
2018-01-10T05:18:28.054Z,70.37
2018-01-10T05:19:28.048Z,70.56
2018-01-10T05:20:28.043Z,70.37
2018-01-10T05:21:28.038Z,70.28
2018-01-10T05:22:28.032Z,69.99
2018-01-10T05:23:28.031Z,70.84
2018-01-10T05:24:28.021Z,70.37
2018-01-10T05:25:28.017Z,70.37
2018-01-10T05:26:28.010Z,70.18
2018-01-10T05:27:28.005Z,69.99
2018-01-10T05:28:27.999Z,70.09
2018-01-10T05:29:27.995Z,70.28
2018-01-10T05:30:27.989Z,69.90
2018-01-10T05:31:27.984Z,69.99
2018-01-10T05:32:27.978Z,70.28
2018-01-10T05:33:27.973Z,69.99
2018-01-10T05:34:27.968Z,69.90
2018-01-10T05:35:27.962Z,70.18
2018-01-10T05:36:27.956Z,70.56
2018-01-10T05:37:27.955Z,70.75
2018-01-10T05:38:27.946Z,70.65
2018-01-10T05:39:27.940Z,70.47
2018-01-10T05:40:27.934Z,70.84
2018-01-10T05:41:27.930Z,70.94
2018-01-10T05:42:27.924Z,70.94
2018-01-10T05:43:27.919Z,71.32
2018-01-10T05:44:27.914Z,71.13
2018-01-10T05:45:27.909Z,71.13
2018-01-10T05:46:27.903Z,71.03
2018-01-10T05:47:27.897Z,71.13
2018-01-10T05:48:27.893Z,70.75
2018-01-10T05:49:27.886Z,71.22
2018-01-10T05:50:27.880Z,70.75
2018-01-10T05:51:27.878Z,71.03
2018-01-10T05:52:27.869Z,70.84
2018-01-10T05:53:27.863Z,70.84
2018-01-10T05:54:27.859Z,70.94
2018-01-10T05:55:27.855Z,71.41
2018-01-10T05:56:27.849Z,71.22
2018-01-10T05:57:27.842Z,71.32
2018-01-10T05:58:27.839Z,71.41
2018-01-10T05:59:27.833Z,71.60
2018-01-10T06:00:27.827Z,71.80
2018-01-10T06:01:27.821Z,71.70
2018-01-10T06:02:27.817Z,72.36
2018-01-10T06:03:27.811Z,72.17
2018-01-10T06:04:27.806Z,72.93
2018-01-10T06:05:27.799Z,72.27
2018-01-10T06:06:27.794Z,72.64
2018-01-10T06:07:27.790Z,72.84
2018-01-10T06:08:27.784Z,72.64
2018-01-10T06:09:27.780Z,73.03
2018-01-10T06:10:27.774Z,73.22
2018-01-10T06:11:27.769Z,72.93
2018-01-10T06:12:27.763Z,72.84
2018-01-10T06:13:27.758Z,73.31
2018-01-10T06:14:27.752Z,73.31
2018-01-10T06:15:27.747Z,72.93
2018-01-10T06:16:27.742Z,73.12
2018-01-10T06:17:27.736Z,72.84
2018-01-10T06:18:27.731Z,73.31
2018-01-10T06:19:27.727Z,73.31
2018-01-10T06:20:27.720Z,73.69
2018-01-10T06:21:27.715Z,73.50
2018-01-10T06:22:27.709Z,73.69
2018-01-10T06:23:27.706Z,73.31
2018-01-10T06:24:27.698Z,73.50
2018-01-10T06:25:27.692Z,73.50
2018-01-10T06:26:27.689Z,73.41
2018-01-10T06:27:27.683Z,73.50
2018-01-10T06:28:27.676Z,73.50
2018-01-10T06:29:27.672Z,73.22
2018-01-10T06:30:27.666Z,73.60
2018-01-10T06:31:27.662Z,74.16
2018-01-10T06:32:27.655Z,74.16
2018-01-10T06:33:27.651Z,73.97
2018-01-10T06:34:27.646Z,73.88
2018-01-10T06:35:27.641Z,73.97
2018-01-10T06:36:27.634Z,74.16
2018-01-10T06:37:27.628Z,73.97
2018-01-10T06:38:27.624Z,74.45
2018-01-10T06:39:27.619Z,74.45
2018-01-10T06:40:27.612Z,74.83
2018-01-10T06:41:27.606Z,74.54
2018-01-10T06:42:27.601Z,74.26
2018-01-10T06:43:27.597Z,74.35
2018-01-10T06:44:27.593Z,74.07
2018-01-10T06:45:27.586Z,74.54
2018-01-10T06:46:27.581Z,74.35
2018-01-10T06:47:27.577Z,74.83
2018-01-10T06:48:27.570Z,74.45
2018-01-10T06:49:27.565Z,74.64
2018-01-10T06:50:27.560Z,74.54
2018-01-10T06:51:27.554Z,75.02
2018-01-10T06:52:27.549Z,75.11
2018-01-10T06:53:27.543Z,75.21
2018-01-10T06:54:27.537Z,75.11
2018-01-10T06:55:27.533Z,75.11
2018-01-10T06:56:27.526Z,75.68
2018-01-10T06:57:27.521Z,75.49
2018-01-10T06:58:27.515Z,75.40
2018-01-10T06:59:27.510Z,75.02
2018-01-10T07:00:27.505Z,74.92
2018-01-10T07:01:27.501Z,74.73
2018-01-10T07:02:27.495Z,75.21
2018-01-10T07:03:27.490Z,75.49
2018-01-10T07:04:27.488Z,75.21
2018-01-10T07:05:27.478Z,75.11
2018-01-10T07:06:27.472Z,75.02
2018-01-10T07:07:27.468Z,75.21
2018-01-10T07:08:27.461Z,75.40
2018-01-10T07:09:27.456Z,75.59
2018-01-10T07:10:27.450Z,75.59
2018-01-10T07:11:27.447Z,75.59
2018-01-10T07:12:27.441Z,75.49
2018-01-10T07:13:27.436Z,75.49
2018-01-10T07:14:27.430Z,75.40
2018-01-10T07:15:27.424Z,75.78
2018-01-10T07:16:27.418Z,75.68
2018-01-10T07:17:27.413Z,75.59
2018-01-10T07:18:27.408Z,75.78
2018-01-10T07:19:27.407Z,75.31
2018-01-10T07:20:27.398Z,75.21
2018-01-10T07:21:27.391Z,75.78
2018-01-10T07:22:27.387Z,75.68
2018-01-10T07:23:27.382Z,75.87
2018-01-10T07:24:27.377Z,75.68
2018-01-10T07:25:27.372Z,75.96
2018-01-10T07:26:27.366Z,75.68
2018-01-10T07:27:27.364Z,76.15
2018-01-10T07:28:27.354Z,75.68
2018-01-10T07:29:27.350Z,76.25
2018-01-10T07:30:27.344Z,76.15
2018-01-10T07:31:27.340Z,76.25
2018-01-10T07:32:27.334Z,75.68
2018-01-10T07:33:27.328Z,76.92
2018-01-10T07:34:27.323Z,76.63
2018-01-10T07:35:27.318Z,76.63
2018-01-10T07:36:27.312Z,76.34
2018-01-10T07:37:27.307Z,76.34
2018-01-10T07:38:27.308Z,76.15
2018-01-10T07:39:27.297Z,76.15
2018-01-10T07:40:27.293Z,76.44
2018-01-10T07:41:27.286Z,76.48
2018-01-10T07:42:27.281Z,76.48
2018-01-10T07:43:27.276Z,76.95
2018-01-10T07:44:27.269Z,77.24
2018-01-10T07:45:27.264Z,76.86
2018-01-10T07:46:27.260Z,76.76
2018-01-10T07:47:27.255Z,77.24
2018-01-10T07:48:27.250Z,77.62
2018-01-10T07:49:27.243Z,77.62
2018-01-10T07:50:27.240Z,77.52
2018-01-10T07:51:27.235Z,77.52
2018-01-10T07:52:27.229Z,77.52
2018-01-10T07:53:27.223Z,77.52
2018-01-10T07:54:27.218Z,77.52
2018-01-10T07:55:27.248Z,77.43
2018-01-10T07:56:27.207Z,78.00
2018-01-10T07:57:27.202Z,78.56
2018-01-10T07:58:27.198Z,78.47
2018-01-10T07:59:27.193Z,78.28
2018-01-10T08:00:27.186Z,78.47
2018-01-10T08:01:27.181Z,78.95
2018-01-10T08:02:27.178Z,79.99
2018-01-10T08:03:27.173Z,80.27
2018-01-10T08:04:27.165Z,80.56
2018-01-10T08:05:27.162Z,80.75
2018-01-10T08:06:27.156Z,80.94
2018-01-10T08:07:27.150Z,80.75
2018-01-10T08:08:27.145Z,81.04
2018-01-10T08:09:27.141Z,80.84
2018-01-10T08:10:27.136Z,80.65
2018-01-10T08:11:27.130Z,81.32
2018-01-10T08:12:27.126Z,81.32
2018-01-10T08:13:27.121Z,81.23
2018-01-10T08:14:27.117Z,81.32
2018-01-10T08:15:27.112Z,81.32
2018-01-10T08:16:27.106Z,81.32
2018-01-10T08:17:27.100Z,80.75
2018-01-10T08:18:27.095Z,79.99
2018-01-10T08:19:27.091Z,79.90
2018-01-10T08:20:27.085Z,79.80
2018-01-10T08:21:27.084Z,79.90
2018-01-10T08:22:27.075Z,79.99
2018-01-10T08:23:27.071Z,80.84
2018-01-10T08:24:27.066Z,80.56
2018-01-10T08:25:27.060Z,80.37
2018-01-10T08:26:27.055Z,80.65
2018-01-10T08:27:27.050Z,80.46
2018-01-10T08:28:27.044Z,80.18
2018-01-10T08:29:27.040Z,80.37
2018-01-10T08:30:27.037Z,80.27
2018-01-10T08:31:27.030Z,80.56
2018-01-10T08:32:27.024Z,80.56
2018-01-10T08:33:27.020Z,80.27
2018-01-10T08:34:27.015Z,80.75
2018-01-10T08:35:27.011Z,81.04
2018-01-10T08:36:27.005Z,81.04
2018-01-10T08:37:27.001Z,81.32
2018-01-10T08:38:27.001Z,81.17
2018-01-10T08:39:26.990Z,81.26
2018-01-10T08:40:26.987Z,81.04
2018-01-10T08:41:26.982Z,82.12
2018-01-10T08:42:26.977Z,81.70
2018-01-10T08:43:26.972Z,82.50
2018-01-10T08:44:26.967Z,81.93
2018-01-10T08:45:26.962Z,81.55
2018-01-10T08:46:26.957Z,81.45
2018-01-10T08:47:26.952Z,81.74
2018-01-10T08:48:26.946Z,81.74
2018-01-10T08:49:26.943Z,81.45
2018-01-10T08:50:26.939Z,81.45
2018-01-10T08:51:26.934Z,81.65
2018-01-10T08:52:26.928Z,81.17
2018-01-10T08:53:26.923Z,81.36
2018-01-10T08:54:26.919Z,81.45
2018-01-10T08:55:26.914Z,82.12
2018-01-10T08:56:26.909Z,81.55
2018-01-10T08:57:26.904Z,82.12
2018-01-10T08:58:26.901Z,81.93
2018-01-10T08:59:26.897Z,81.55
2018-01-10T09:00:26.891Z,80.79
2018-01-10T09:01:26.888Z,80.79
2018-01-10T09:02:26.881Z,80.69
2018-01-10T09:03:26.877Z,80.22
2018-01-10T09:04:26.877Z,81.17
2018-01-10T09:05:26.868Z,80.22
2018-01-10T09:06:26.864Z,80.51
2018-01-10T09:07:26.858Z,81.07
2018-01-10T09:08:26.852Z,80.98
2018-01-10T09:09:26.851Z,80.79
2018-01-10T09:10:26.843Z,80.51
2018-01-10T09:11:26.840Z,80.51
2018-01-10T09:12:26.835Z,80.98
2018-01-10T09:13:26.830Z,80.88
2018-01-10T09:14:26.825Z,81.07
2018-01-10T09:15:26.821Z,80.51
2018-01-10T09:16:26.817Z,80.98
2018-01-10T09:17:26.812Z,81.17
2018-01-10T09:18:26.807Z,81.45
2018-01-10T09:19:26.803Z,81.55
2018-01-10T09:20:26.796Z,81.93
2018-01-10T09:21:26.793Z,82.50
2018-01-10T09:22:26.789Z,82.12
2018-01-10T09:23:26.786Z,82.21
2018-01-10T09:24:26.779Z,82.59
2018-01-10T09:25:26.775Z,82.59
2018-01-10T09:26:26.771Z,82.69
2018-01-10T09:27:26.765Z,82.31
2018-01-10T09:28:26.760Z,82.59
2018-01-10T09:29:26.757Z,81.26
2018-01-10T09:30:26.753Z,81.55
2018-01-10T09:31:26.748Z,81.26
2018-01-10T09:32:26.742Z,81.74
2018-01-10T09:33:26.739Z,81.84
2018-01-10T09:34:26.735Z,81.74
2018-01-10T09:35:26.729Z,82.97
2018-01-10T09:36:26.724Z,83.36
2018-01-10T09:37:26.721Z,83.64
2018-01-10T09:38:26.715Z,84.87
2018-01-10T09:39:26.712Z,84.49
2018-01-10T09:40:26.707Z,84.49
2018-01-10T09:41:26.704Z,85.06
2018-01-10T09:42:26.697Z,85.44
2018-01-10T09:43:26.693Z,85.20
2018-01-10T09:44:26.690Z,84.63
2018-01-10T09:45:26.684Z,85.68
2018-01-10T09:46:26.680Z,85.49
2018-01-10T09:47:26.678Z,84.91
2018-01-10T09:48:26.671Z,84.72
2018-01-10T09:49:26.668Z,85.11
2018-01-10T09:50:26.664Z,85.58
2018-01-10T09:51:26.659Z,86.72
2018-01-10T09:52:26.653Z,87.76
2018-01-10T09:53:26.650Z,87.95
2018-01-10T09:54:26.647Z,88.53
2018-01-10T09:55:26.641Z,89.23
2018-01-10T09:56:26.637Z,89.80
2018-01-10T09:57:26.632Z,90.19
2018-01-10T09:58:26.628Z,90.52
2018-01-10T09:59:26.624Z,90.71
2018-01-10T10:00:26.620Z,91.42
2018-01-10T10:01:26.616Z,91.52
2018-01-10T10:02:26.612Z,91.80
2018-01-10T10:03:26.608Z,91.99
2018-01-10T10:04:26.604Z,91.71
2018-01-10T10:05:26.599Z,92.27
2018-01-10T10:06:26.595Z,92.56
2018-01-10T10:07:26.592Z,92.75
2018-01-10T10:08:26.587Z,92.08
2018-01-10T10:09:26.583Z,92.46
2018-01-10T10:10:26.578Z,92.75
2018-01-10T10:11:26.573Z,93.23
2018-01-10T10:12:26.570Z,93.32
2018-01-10T10:13:26.566Z,93.60
2018-01-10T10:14:26.562Z,93.51
2018-01-10T10:15:26.559Z,93.89
2018-01-10T10:16:26.556Z,93.51
2018-01-10T10:17:26.549Z,94.65
2018-01-10T10:18:26.546Z,94.27
2018-01-10T10:19:26.543Z,94.46
2018-01-10T10:20:26.537Z,94.46
2018-01-10T10:21:26.534Z,94.65
2018-01-10T10:22:26.529Z,94.84
2018-01-10T10:23:26.525Z,95.03
2018-01-10T10:24:26.522Z,94.93
2018-01-10T10:25:26.517Z,94.93
2018-01-10T10:26:26.515Z,95.17
2018-01-10T10:27:26.511Z,96.31
2018-01-10T10:28:26.509Z,96.17
2018-01-10T10:29:26.503Z,96.31
2018-01-10T10:30:26.499Z,96.08
2018-01-10T10:31:26.495Z,95.56
2018-01-10T10:32:26.491Z,95.51
2018-01-10T10:33:26.486Z,94.84
2018-01-10T10:34:26.483Z,94.84
2018-01-10T10:35:26.479Z,94.93
2018-01-10T10:36:26.476Z,94.37
2018-01-10T10:37:26.471Z,93.89
2018-01-10T10:38:26.468Z,94.37
2018-01-10T10:39:26.463Z,93.89
2018-01-10T10:40:26.459Z,93.60
2018-01-10T10:41:26.461Z,93.79
2018-01-10T10:42:26.455Z,93.13
2018-01-10T10:43:26.448Z,93.13
2018-01-10T10:44:26.449Z,93.32
2018-01-10T10:45:26.440Z,92.56
2018-01-10T10:46:26.443Z,92.66
2018-01-10T10:47:26.433Z,92.08
2018-01-10T10:48:26.429Z,91.80
2018-01-10T10:49:26.424Z,92.22
2018-01-10T10:50:26.421Z,91.94
2018-01-10T10:51:26.417Z,91.52
2018-01-10T10:52:26.412Z,91.89
2018-01-10T10:53:26.408Z,91.89
2018-01-10T10:54:26.406Z,91.33
2018-01-10T10:55:26.402Z,91.47
2018-01-10T10:56:26.398Z,90.75
2018-01-10T10:57:26.395Z,90.85
2018-01-10T10:58:26.391Z,90.94
2018-01-10T10:59:26.386Z,90.23
2018-01-10T11:00:26.387Z,89.85
2018-01-10T11:01:26.379Z,90.61
2018-01-10T11:02:26.376Z,90.66
2018-01-10T11:03:26.372Z,90.61
2018-01-10T11:04:26.367Z,91.28
2018-01-10T11:05:26.364Z,90.89
2018-01-10T11:06:26.361Z,91.85
2018-01-10T11:07:26.357Z,92.80
2018-01-10T11:08:26.354Z,94.13
2018-01-10T11:09:26.350Z,95.03
2018-01-10T11:10:26.345Z,96.94
2018-01-10T11:11:26.342Z,98.17
2018-01-10T11:12:26.338Z,98.17
2018-01-10T11:13:26.336Z,98.55
2018-01-10T11:14:26.333Z,99.99
2018-01-10T11:15:26.331Z,99.99
2018-01-10T11:16:26.327Z,99.69
2018-01-10T11:17:26.322Z,99.99
2018-01-10T11:18:26.321Z,99.99
2018-01-10T11:19:26.320Z,99.99
2018-01-10T11:20:26.311Z,99.99
2018-01-10T11:21:26.315Z,99.99
2018-01-10T11:22:26.305Z,99.99
2018-01-10T11:23:26.304Z,99.99
2018-01-10T11:24:26.300Z,99.99
2018-01-10T11:25:26.294Z,99.99
2018-01-10T11:26:26.293Z,99.99
2018-01-10T11:27:26.291Z,99.98
2018-01-10T11:31:49.678Z,99.99
2018-01-10T11:32:49.674Z,99.99
2018-01-10T11:33:49.673Z,99.99
2018-01-10T11:34:49.668Z,99.99
2018-01-10T11:35:49.665Z,99.99
2018-01-10T11:36:49.662Z,99.99
2018-01-10T11:37:49.660Z,99.99
2018-01-10T11:38:49.657Z,99.99
2018-01-10T11:39:49.654Z,99.99
2018-01-10T11:40:49.651Z,99.99
2018-01-10T11:41:49.648Z,99.99
2018-01-10T11:42:49.645Z,99.99
2018-01-10T11:43:49.643Z,99.99
2018-01-10T11:44:49.640Z,99.99
2018-01-10T11:45:49.638Z,99.99
2018-01-10T11:46:49.634Z,99.99
2018-01-10T11:47:49.630Z,99.99
2018-01-10T11:48:49.628Z,99.99
2018-01-10T11:49:49.629Z,99.99
2018-01-10T11:50:49.622Z,99.99
2018-01-10T11:51:49.619Z,99.99
2018-01-10T11:52:49.617Z,99.99
2018-01-10T11:53:49.615Z,99.99
2018-01-10T11:54:49.665Z,99.99
2018-01-10T11:55:49.611Z,99.99
2018-01-10T11:56:49.607Z,99.99
2018-01-10T11:57:49.606Z,99.99
2018-01-10T11:58:49.603Z,99.99
2018-01-10T11:59:49.600Z,99.99
2018-01-10T12:00:49.598Z,99.99
2018-01-10T12:01:49.596Z,99.99
2018-01-10T12:02:49.592Z,99.99
2018-01-10T12:03:49.591Z,99.99
2018-01-10T12:04:49.590Z,99.99
2018-01-10T12:05:49.587Z,99.99
2018-01-10T12:06:49.585Z,99.99
2018-01-10T12:07:49.582Z,99.99
2018-01-10T12:08:49.581Z,99.99
2018-01-10T12:09:49.580Z,99.99
2018-01-10T12:10:49.576Z,99.99
2018-01-10T12:11:49.574Z,99.99
2018-01-10T12:12:49.573Z,99.99
2018-01-10T12:13:49.568Z,99.99
2018-01-10T12:14:49.565Z,99.99
2018-01-10T12:15:49.563Z,99.99
2018-01-10T12:16:49.561Z,99.99
2018-01-10T12:17:49.558Z,99.99
2018-01-10T12:18:49.556Z,99.99
2018-01-10T12:19:49.553Z,99.99
2018-01-10T12:20:49.550Z,99.99
2018-01-10T12:21:49.548Z,99.99
2018-01-10T12:22:49.545Z,99.99
2018-01-10T12:23:49.543Z,99.99
2018-01-10T12:24:49.559Z,99.99
2018-01-10T12:25:49.537Z,99.99
2018-01-10T12:26:49.532Z,99.99
2018-01-10T12:27:49.532Z,99.99
2018-01-10T12:28:49.529Z,99.99
2018-01-10T12:29:49.526Z,99.99
2018-01-10T12:30:49.529Z,99.99
2018-01-10T12:31:49.524Z,99.99
2018-01-10T12:32:49.519Z,99.99
2018-01-10T12:33:49.515Z,99.99
2018-01-10T12:34:49.513Z,99.99
2018-01-10T12:35:49.508Z,99.99
2018-01-10T12:36:49.511Z,99.99
2018-01-10T12:37:49.506Z,99.99
2018-01-10T12:38:49.533Z,99.99
2018-01-10T12:39:49.500Z,99.99
2018-01-10T12:40:49.497Z,99.99
2018-01-10T12:41:49.495Z,99.99
2018-01-10T12:42:49.493Z,99.99
2018-01-10T12:43:49.489Z,99.99
2018-01-10T12:44:49.488Z,99.99
2018-01-10T12:45:49.486Z,99.99
2018-01-10T12:46:49.482Z,99.99
2018-01-10T12:47:49.481Z,99.99
2018-01-10T12:48:49.489Z,99.99
2018-01-10T12:49:49.476Z,99.99
2018-01-10T12:50:49.473Z,99.99
2018-01-10T12:51:49.473Z,99.99
2018-01-10T12:52:49.470Z,99.99
2018-01-10T12:53:49.467Z,99.99
2018-01-10T12:54:49.463Z,99.99
2018-01-10T12:55:49.463Z,99.99